createdAt,value
2023-07-25T00:00:30.680Z,2.90
2023-07-25T00:03:18.882Z,3.17
2023-07-25T00:05:47.546Z,3.35
2023-07-25T00:08:15.839Z,3.08
2023-07-25T00:10:44.344Z,3.95
2023-07-25T00:13:13.912Z,2.53
2023-07-25T00:15:42.736Z,2.90
2023-07-25T00:18:11.143Z,2.70
2023-07-25T00:20:39.816Z,3.35
2023-07-25T00:23:08.030Z,3.33
2023-07-25T00:25:37.045Z,3.88
2023-07-25T00:28:05.502Z,3.30
2023-07-25T00:30:35.485Z,3.28
2023-07-25T00:33:03.945Z,3.22
2023-07-25T00:35:32.553Z,3.10
2023-07-25T00:38:00.922Z,3.22
2023-07-25T00:40:29.651Z,3.17
2023-07-25T00:42:58.092Z,2.97
2023-07-25T00:45:27.514Z,2.60
2023-07-25T00:47:57.289Z,3.00
2023-07-25T00:50:26.097Z,3.13
2023-07-25T00:52:58.270Z,3.20
2023-07-25T00:55:28.787Z,3.25
2023-07-25T00:57:57.227Z,3.67
2023-07-25T01:00:25.861Z,2.63
2023-07-25T01:02:54.868Z,3.08
2023-07-25T01:05:25.789Z,2.75
2023-07-25T01:07:54.369Z,2.47
2023-07-25T01:10:22.993Z,2.60
2023-07-25T01:12:51.553Z,2.90
2023-07-25T01:15:20.422Z,2.72
2023-07-25T01:17:48.986Z,3.72
2023-07-25T01:20:17.822Z,3.95
2023-07-25T01:22:48.808Z,3.40
2023-07-25T01:25:18.888Z,2.40
2023-07-25T01:27:47.226Z,3.65
2023-07-25T01:30:15.745Z,3.33
2023-07-25T01:32:44.157Z,3.00
2023-07-25T01:35:12.829Z,3.70
2023-07-25T01:37:41.188Z,2.78
2023-07-25T01:40:11.007Z,3.35
2023-07-25T01:42:40.783Z,3.45
2023-07-25T01:45:13.257Z,3.22
2023-07-25T01:47:40.748Z,3.65
2023-07-25T01:50:09.892Z,3.42
2023-07-25T01:52:38.470Z,3.53
2023-07-25T01:55:08.104Z,2.53
2023-07-25T01:57:36.512Z,3.45
2023-07-25T02:00:08.080Z,4.28
2023-07-25T02:02:41.470Z,3.58
2023-07-25T02:05:10.281Z,2.50
2023-07-25T02:07:38.869Z,2.75
2023-07-25T02:10:08.994Z,3.88
2023-07-25T02:12:37.671Z,4.05
2023-07-25T02:15:09.047Z,2.83
2023-07-25T02:17:37.512Z,2.72
2023-07-25T02:20:07.462Z,3.50
2023-07-25T02:22:36.827Z,3.15
2023-07-25T02:25:06.281Z,3.10
2023-07-25T02:27:34.992Z,3.17
2023-07-25T02:30:03.744Z,2.70
2023-07-25T02:32:33.526Z,3.30
2023-07-25T02:35:02.474Z,3.80
2023-07-25T02:37:30.881Z,2.67
2023-07-25T02:39:59.484Z,3.38
2023-07-25T02:42:27.934Z,5.03
2023-07-25T02:44:56.633Z,2.85
2023-07-25T02:47:25.023Z,3.45
2023-07-25T02:49:55.024Z,3.40
2023-07-25T02:52:23.905Z,3.08
2023-07-25T02:54:52.316Z,2.65
2023-07-25T02:57:21.068Z,4.28
2023-07-25T02:59:49.817Z,3.25
2023-07-25T03:02:18.120Z,3.75
2023-07-25T03:04:46.883Z,4.38
2023-07-25T03:07:16.594Z,2.90
2023-07-25T03:09:45.336Z,4.53
2023-07-25T03:12:13.897Z,3.95
2023-07-25T03:14:42.614Z,2.80
2023-07-25T03:17:11.118Z,3.47
2023-07-25T03:19:39.821Z,3.72
2023-07-25T03:22:08.771Z,3.58
2023-07-25T03:24:38.883Z,3.70
2023-07-25T03:27:08.044Z,3.90
2023-07-25T03:29:36.740Z,4.47
2023-07-25T03:32:05.287Z,5.07
2023-07-25T03:34:33.924Z,4.35
2023-07-25T03:37:02.439Z,5.07
2023-07-25T03:39:31.551Z,5.25
2023-07-25T03:42:01.270Z,4.20
2023-07-25T03:44:30.054Z,6.25
2023-07-25T03:46:58.503Z,4.30
2023-07-25T03:49:27.180Z,6.60
2023-07-25T03:51:55.486Z,6.25
2023-07-25T03:54:26.454Z,4.68
2023-07-25T03:56:56.778Z,5.28
2023-07-25T03:59:27.039Z,5.43
2023-07-25T04:01:55.589Z,4.35
2023-07-25T04:04:24.423Z,5.43
2023-07-25T04:06:52.828Z,7.15
2023-07-25T04:09:21.473Z,6.35
2023-07-25T04:11:49.753Z,6.93
2023-07-25T04:14:18.503Z,7.85
2023-07-25T04:16:48.062Z,5.75
2023-07-25T04:19:16.939Z,6.85
2023-07-25T04:21:45.287Z,7.75
2023-07-25T04:24:13.924Z,6.78
2023-07-25T04:26:42.247Z,6.40
2023-07-25T04:29:10.870Z,7.70
2023-07-25T04:31:39.194Z,6.53
2023-07-25T04:34:09.309Z,6.10
2023-07-25T04:36:37.763Z,6.75
2023-07-25T04:39:06.370Z,6.07
2023-07-25T04:41:34.816Z,5.50
2023-07-25T04:44:03.950Z,7.18
2023-07-25T04:46:32.268Z,7.53
2023-07-25T04:49:00.862Z,5.40
2023-07-25T04:51:30.919Z,6.18
2023-07-25T04:53:59.885Z,7.00
2023-07-25T04:56:28.191Z,6.30
2023-07-25T04:58:57.013Z,5.93
2023-07-25T05:01:25.401Z,5.07
2023-07-25T05:03:54.126Z,4.85
2023-07-25T05:06:22.818Z,6.47
2023-07-25T05:08:52.723Z,4.40
2023-07-25T05:11:21.152Z,5.03
2023-07-25T05:13:49.744Z,5.43
2023-07-25T05:16:19.881Z,5.00
2023-07-25T05:18:48.897Z,4.57
2023-07-25T05:21:17.417Z,5.18
2023-07-25T05:23:46.000Z,4.57
2023-07-25T05:26:15.798Z,4.82
2023-07-25T05:28:45.947Z,4.90
2023-07-25T05:31:14.512Z,5.57
2023-07-25T05:33:43.210Z,5.57
2023-07-25T05:36:11.708Z,5.72
2023-07-25T05:38:40.380Z,6.03
2023-07-25T05:41:09.081Z,5.65
2023-07-25T05:43:39.017Z,5.75
2023-07-25T05:46:08.811Z,5.75
2023-07-25T05:48:37.506Z,5.78
2023-07-25T05:51:05.937Z,4.85
2023-07-25T05:53:34.681Z,5.93
2023-07-25T05:56:02.902Z,5.20
2023-07-25T05:58:31.998Z,5.05
2023-07-25T06:01:02.225Z,6.35
2023-07-25T06:03:30.954Z,6.03
2023-07-25T06:05:59.248Z,6.03
2023-07-25T06:08:27.881Z,5.75
2023-07-25T06:10:56.528Z,4.78
2023-07-25T06:13:25.718Z,5.22
2023-07-25T06:15:54.222Z,4.70
2023-07-25T06:18:24.324Z,4.90
2023-07-25T06:20:52.695Z,4.50
2023-07-25T06:23:22.192Z,4.57
2023-07-25T06:25:50.501Z,4.78
2023-07-25T06:28:19.661Z,6.28
2023-07-25T06:30:48.268Z,6.30
2023-07-25T06:33:17.442Z,6.43
2023-07-25T06:35:47.263Z,6.78
2023-07-25T06:38:16.013Z,6.25
2023-07-25T06:40:44.423Z,6.40
2023-07-25T06:43:12.988Z,5.55
2023-07-25T06:45:41.457Z,5.90
2023-07-25T06:48:13.667Z,6.07
2023-07-25T06:50:42.193Z,5.85
2023-07-25T06:53:12.604Z,7.25
2023-07-25T06:55:41.067Z,6.97
2023-07-25T06:58:10.018Z,5.93
2023-07-25T07:00:40.385Z,5.68
2023-07-25T07:03:09.376Z,5.82
2023-07-25T07:05:37.964Z,5.28
2023-07-25T07:08:07.004Z,4.60
2023-07-25T07:10:38.450Z,5.50
2023-07-25T07:13:08.320Z,6.38
2023-07-25T07:15:36.821Z,4.70
2023-07-25T07:18:05.470Z,5.82
2023-07-25T07:20:33.897Z,5.20
2023-07-25T07:23:02.593Z,5.40
2023-07-25T07:25:31.004Z,5.65
2023-07-25T07:28:00.800Z,5.30
2023-07-25T07:30:29.285Z,5.30
2023-07-25T07:32:58.541Z,5.55
2023-07-25T07:35:27.518Z,4.00
2023-07-25T07:37:56.110Z,4.60
2023-07-25T07:40:24.478Z,4.70
2023-07-25T07:42:53.220Z,4.38
2023-07-25T07:45:25.021Z,4.80
2023-07-25T07:47:53.888Z,5.15
2023-07-25T07:50:22.875Z,4.80
2023-07-25T07:52:51.553Z,5.72
2023-07-25T07:55:20.079Z,4.45
2023-07-25T07:57:49.478Z,4.43
2023-07-25T08:00:18.866Z,4.90
2023-07-25T08:02:50.111Z,4.38
2023-07-25T08:05:18.912Z,4.13
2023-07-25T08:07:47.682Z,3.92
2023-07-25T08:10:16.227Z,4.00
2023-07-25T08:12:44.844Z,4.63
2023-07-25T08:15:13.411Z,4.35
2023-07-25T08:17:42.103Z,3.85
2023-07-25T08:20:14.524Z,4.45
2023-07-25T08:22:43.216Z,4.63
2023-07-25T08:25:12.690Z,4.28
2023-07-25T08:27:41.375Z,4.60
2023-07-25T08:30:10.596Z,4.47
2023-07-25T08:32:39.136Z,5.35
2023-07-25T08:35:07.875Z,5.15
2023-07-25T08:37:37.925Z,4.72
2023-07-25T08:40:07.424Z,5.10
2023-07-25T08:42:39.397Z,4.68
2023-07-25T08:45:09.521Z,5.13
2023-07-25T08:47:42.266Z,5.18
2023-07-25T08:50:16.164Z,4.20
2023-07-25T08:52:51.743Z,4.80
2023-07-25T08:55:20.403Z,5.10
2023-07-25T08:57:52.351Z,4.18
2023-07-25T09:00:22.227Z,5.18
2023-07-25T09:02:53.924Z,4.68
2023-07-25T09:05:24.116Z,4.53
2023-07-25T09:08:00.016Z,4.80
2023-07-25T09:10:29.679Z,4.80
2023-07-25T09:12:58.552Z,4.88
2023-07-25T09:15:27.171Z,5.30
2023-07-25T09:17:56.148Z,4.22
2023-07-25T09:20:25.526Z,4.70
2023-07-25T09:22:57.961Z,4.60
2023-07-25T09:25:28.301Z,4.47
2023-07-25T09:27:57.294Z,3.90
2023-07-25T09:30:29.919Z,5.35
2023-07-25T09:32:58.677Z,3.60
2023-07-25T09:35:27.744Z,3.85
2023-07-25T09:37:58.206Z,4.75
2023-07-25T09:40:27.068Z,4.38
2023-07-25T09:42:55.592Z,3.50
2023-07-25T09:45:24.004Z,4.78
2023-07-25T09:47:54.145Z,4.00
2023-07-25T09:50:27.907Z,5.63
2023-07-25T09:53:03.472Z,5.15
2023-07-25T09:55:31.873Z,4.50
2023-07-25T09:58:00.662Z,3.92
2023-07-25T10:00:29.338Z,4.32
2023-07-25T10:02:59.236Z,3.80
2023-07-25T10:05:29.959Z,3.90
2023-07-25T10:08:01.477Z,4.15
2023-07-25T10:10:31.435Z,3.75
2023-07-25T10:13:00.448Z,4.00
2023-07-25T10:15:29.311Z,4.68
2023-07-25T10:18:03.982Z,3.33
2023-07-25T10:20:33.553Z,3.20
2023-07-25T10:23:12.595Z,3.47
2023-07-25T10:25:41.011Z,3.65
2023-07-25T10:28:09.901Z,4.15
2023-07-25T10:30:44.252Z,3.40
2023-07-25T10:33:14.987Z,3.25
2023-07-25T10:35:50.440Z,4.53
2023-07-25T10:38:33.752Z,3.42
2023-07-25T10:41:11.448Z,3.83
2023-07-25T10:44:03.405Z,2.78
2023-07-25T10:46:33.615Z,3.55
2023-07-25T10:49:03.644Z,3.72
2023-07-25T10:51:53.053Z,3.50
2023-07-25T10:54:23.533Z,2.75
2023-07-25T10:57:19.409Z,3.47
2023-07-25T11:00:01.719Z,2.90
2023-07-25T11:02:32.121Z,3.20
2023-07-25T11:05:23.546Z,3.03
2023-07-25T11:07:56.405Z,2.90
2023-07-25T11:10:27.518Z,3.38
2023-07-25T11:12:57.861Z,2.80
2023-07-25T11:17:58.495Z,3.08
2023-07-25T11:20:27.216Z,2.50
2023-07-25T11:22:55.971Z,2.50
2023-07-25T11:25:26.353Z,3.28
2023-07-25T11:27:54.753Z,2.97
2023-07-25T11:30:23.288Z,2.45
2023-07-25T11:32:52.729Z,2.25
2023-07-25T11:35:22.275Z,2.03
2023-07-25T11:37:51.751Z,2.65
2023-07-25T11:40:23.277Z,2.63
2023-07-25T11:42:53.012Z,2.47
2023-07-25T11:45:22.337Z,2.47
2023-07-25T11:47:52.837Z,2.90
2023-07-25T11:50:28.966Z,2.85
2023-07-25T11:53:00.148Z,3.28
2023-07-25T11:55:29.582Z,2.70
2023-07-25T11:58:03.784Z,3.50
2023-07-25T12:00:41.702Z,2.83
2023-07-25T12:03:18.792Z,3.03
2023-07-25T12:05:54.651Z,2.72
2023-07-25T12:08:33.611Z,2.97
2023-07-25T12:11:03.946Z,2.60
2023-07-25T12:13:33.786Z,3.05
2023-07-25T12:16:03.323Z,3.17
2023-07-25T12:18:33.144Z,3.22
2023-07-25T12:21:02.994Z,2.35
2023-07-25T12:23:32.564Z,2.75
2023-07-25T12:26:03.023Z,2.50
2023-07-25T12:28:42.117Z,3.67
2023-07-25T12:31:11.087Z,3.15
2023-07-25T12:33:40.543Z,2.53
2023-07-25T12:36:09.498Z,3.28
2023-07-25T12:38:37.957Z,3.50
2023-07-25T12:41:06.702Z,2.47
2023-07-25T12:43:35.194Z,3.17
2023-07-25T12:46:05.234Z,3.25
2023-07-25T12:48:33.839Z,2.83
2023-07-25T12:51:02.725Z,3.13
2023-07-25T12:53:31.179Z,3.45
2023-07-25T12:56:02.683Z,2.42
2023-07-25T12:58:31.240Z,2.78
2023-07-25T13:00:59.930Z,3.33
2023-07-25T13:03:29.876Z,2.92
2023-07-25T13:05:58.529Z,3.72
2023-07-25T13:08:26.834Z,3.55
2023-07-25T13:10:55.509Z,2.70
2023-07-25T13:13:23.943Z,3.03
2023-07-25T13:15:52.783Z,3.33
2023-07-25T13:18:21.865Z,2.90
2023-07-25T13:20:52.260Z,3.35
2023-07-25T13:23:20.722Z,3.75
2023-07-25T13:25:49.346Z,2.85
2023-07-25T13:28:18.864Z,2.95
2023-07-25T13:30:47.663Z,3.10
2023-07-25T13:33:16.187Z,3.03
2023-07-25T13:35:45.089Z,3.03
2023-07-25T13:38:14.733Z,3.22
2023-07-25T13:40:43.328Z,2.70
2023-07-25T13:43:11.734Z,2.70
2023-07-25T13:45:52.114Z,3.03
2023-07-25T13:48:24.276Z,3.55
2023-07-25T13:50:54.883Z,2.75
2023-07-25T13:53:24.985Z,3.35
2023-07-25T13:55:53.884Z,2.55
2023-07-25T13:58:24.222Z,2.55
2023-07-25T14:00:53.598Z,3.63
2023-07-25T14:03:22.058Z,2.65
2023-07-25T14:05:50.859Z,3.03
2023-07-25T14:08:19.383Z,3.38
2023-07-25T14:10:49.573Z,2.10
2023-07-25T14:13:18.098Z,2.50
2023-07-25T14:15:46.784Z,2.65
2023-07-25T14:18:15.393Z,2.53
2023-07-25T14:20:43.989Z,2.78
2023-07-25T14:23:12.430Z,3.38
2023-07-25T14:25:40.992Z,3.90
2023-07-25T14:28:10.700Z,2.30
2023-07-25T14:30:39.489Z,3.10
2023-07-25T14:33:08.163Z,2.35
2023-07-25T14:35:36.951Z,2.20
2023-07-25T14:38:08.021Z,2.83
2023-07-25T14:40:37.540Z,2.67
2023-07-25T14:43:05.886Z,2.60
2023-07-25T14:45:36.252Z,2.63
2023-07-25T14:48:05.179Z,2.58
2023-07-25T14:50:34.682Z,2.75
2023-07-25T14:53:03.059Z,2.85
2023-07-25T14:55:31.662Z,3.28
2023-07-25T14:58:00.170Z,2.65
2023-07-25T15:00:28.882Z,2.30
2023-07-25T15:02:58.615Z,2.22
2023-07-25T15:05:27.696Z,3.17
2023-07-25T15:07:56.534Z,2.33
2023-07-25T15:10:25.303Z,3.35
2023-07-25T15:12:53.718Z,2.33
2023-07-25T15:15:23.237Z,3.15
2023-07-25T15:17:51.738Z,3.13
2023-07-25T15:20:24.124Z,3.08
2023-07-25T15:22:52.605Z,2.60
2023-07-25T15:25:21.589Z,3.03
2023-07-25T15:27:50.065Z,2.67
2023-07-25T15:30:19.338Z,3.20
2023-07-25T15:32:47.682Z,3.40
2023-07-25T15:35:16.505Z,2.70
2023-07-25T15:37:48.565Z,2.50
2023-07-25T15:40:18.071Z,2.65
2023-07-25T15:42:46.501Z,3.03
2023-07-25T15:45:15.210Z,2.53
2023-07-25T15:47:43.768Z,3.45
2023-07-25T15:50:13.094Z,2.83
2023-07-25T15:52:42.194Z,2.55
2023-07-25T15:55:12.288Z,3.63
2023-07-25T15:57:40.658Z,2.53
2023-07-25T16:00:11.038Z,3.03
2023-07-25T16:02:39.451Z,3.45
2023-07-25T16:05:08.756Z,3.50
2023-07-25T16:07:37.155Z,3.22
2023-07-25T16:10:06.726Z,3.22
2023-07-25T16:12:36.593Z,2.50
2023-07-25T16:15:06.118Z,3.35
2023-07-25T16:17:34.621Z,3.90
2023-07-25T16:20:04.848Z,2.70
2023-07-25T16:22:33.671Z,2.33
2023-07-25T16:25:02.294Z,2.85
2023-07-25T16:27:30.849Z,2.88
2023-07-25T16:30:00.893Z,2.20
2023-07-25T16:32:30.101Z,3.08
2023-07-25T16:34:58.819Z,2.95
2023-07-25T16:37:27.297Z,2.42
2023-07-25T16:39:56.008Z,3.47
2023-07-25T16:42:25.091Z,3.42
2023-07-25T16:44:55.705Z,5.47
2023-07-25T16:47:25.487Z,3.10
2023-07-25T16:49:54.199Z,2.85
2023-07-25T16:52:22.646Z,2.67
2023-07-25T16:54:51.202Z,3.17
2023-07-25T16:57:19.689Z,4.38
2023-07-25T16:59:48.660Z,3.70
2023-07-25T17:02:16.992Z,3.55
2023-07-25T17:04:47.040Z,3.40
2023-07-25T17:07:15.496Z,2.67
2023-07-25T17:09:44.171Z,3.45
2023-07-25T17:12:12.382Z,2.72
2023-07-25T17:14:41.100Z,2.20
2023-07-25T17:17:11.665Z,2.30
2023-07-25T17:19:42.219Z,2.78
2023-07-25T17:22:11.975Z,3.58
2023-07-25T17:24:41.036Z,3.45
2023-07-25T17:27:09.401Z,3.03
2023-07-25T17:29:38.086Z,2.47
2023-07-25T17:32:06.943Z,2.58
2023-07-25T17:34:35.940Z,2.53
2023-07-25T17:37:04.539Z,2.05
2023-07-25T17:39:34.765Z,3.80
2023-07-25T17:42:04.013Z,2.60
2023-07-25T17:44:32.707Z,2.40
2023-07-25T17:47:01.010Z,1.90
2023-07-25T17:49:29.573Z,2.08
2023-07-25T17:51:58.017Z,2.42
2023-07-25T17:54:26.679Z,2.78
2023-07-25T17:56:56.339Z,3.58
2023-07-25T17:59:24.953Z,2.00
2023-07-25T18:01:53.386Z,2.85
2023-07-25T18:04:22.020Z,3.38
2023-07-25T18:06:50.502Z,2.63
2023-07-25T18:09:19.080Z,2.92
2023-07-25T18:11:47.421Z,3.70
2023-07-25T18:14:17.371Z,3.00
2023-07-25T18:16:45.756Z,2.97
2023-07-25T18:19:14.639Z,3.33
2023-07-25T18:21:43.164Z,2.92
2023-07-25T18:24:12.371Z,2.38
2023-07-25T18:26:40.865Z,3.20
2023-07-25T18:29:09.481Z,2.88
2023-07-25T18:31:39.235Z,2.22
2023-07-25T18:34:08.115Z,3.40
2023-07-25T18:36:36.545Z,2.65
2023-07-25T18:39:07.448Z,3.13
2023-07-25T18:41:38.769Z,3.25
2023-07-25T18:44:07.596Z,2.70
2023-07-25T18:46:36.146Z,4.47
2023-07-25T18:49:06.388Z,3.40
2023-07-25T18:51:34.899Z,3.13
2023-07-25T18:54:03.601Z,2.33
2023-07-25T18:56:32.227Z,3.53
2023-07-25T18:59:01.251Z,2.38
2023-07-25T19:01:30.358Z,3.15
2023-07-25T19:04:00.145Z,3.05
2023-07-25T19:06:29.906Z,3.72
2023-07-25T19:08:58.839Z,3.50
2023-07-25T19:11:27.816Z,3.10
2023-07-25T19:13:56.443Z,3.00
2023-07-25T19:16:24.925Z,2.72
2023-07-25T19:18:53.668Z,3.42
2023-07-25T19:21:22.056Z,3.00
2023-07-25T19:23:52.059Z,3.70
2023-07-25T19:26:20.629Z,2.67
2023-07-25T19:28:49.281Z,3.10
2023-07-25T19:31:17.703Z,3.15
2023-07-25T19:33:46.249Z,3.40
2023-07-25T19:36:15.908Z,3.72
2023-07-25T19:38:45.360Z,3.17
2023-07-25T19:41:18.824Z,2.97
2023-07-25T19:43:47.671Z,4.00
2023-07-25T19:46:16.316Z,2.53
2023-07-25T19:48:44.926Z,3.00
2023-07-25T19:51:14.742Z,3.35
2023-07-25T19:53:43.954Z,3.13
2023-07-25T19:56:12.770Z,2.42
2023-07-25T19:58:43.114Z,4.40
2023-07-25T20:01:13.058Z,2.97
2023-07-25T20:03:42.470Z,3.30
2023-07-25T20:06:11.700Z,3.05
2023-07-25T20:08:40.581Z,2.53
2023-07-25T20:11:08.912Z,4.47
2023-07-25T20:13:38.258Z,3.58
2023-07-25T20:16:08.396Z,2.75
2023-07-25T20:18:38.033Z,2.75
2023-07-25T20:21:11.313Z,3.60
2023-07-25T20:23:40.720Z,3.28
2023-07-25T20:26:09.272Z,2.80
2023-07-25T20:28:37.886Z,3.67
2023-07-25T20:31:08.199Z,2.97
2023-07-25T20:33:37.032Z,2.78
2023-07-25T20:36:05.698Z,3.78
2023-07-25T20:38:34.675Z,3.70
2023-07-25T20:41:03.126Z,2.75
2023-07-25T20:43:31.854Z,2.83
2023-07-25T20:46:04.287Z,2.97
2023-07-25T20:48:35.926Z,2.67
2023-07-25T20:51:04.488Z,3.42
2023-07-25T20:53:33.197Z,3.70
2023-07-25T20:56:02.483Z,3.42
2023-07-25T20:58:31.313Z,3.10
2023-07-25T21:00:59.641Z,3.13
2023-07-25T21:03:29.097Z,3.42
2023-07-25T21:05:59.260Z,3.03
2023-07-25T21:08:27.946Z,3.03
2023-07-25T21:10:56.378Z,2.97
2023-07-25T21:13:25.039Z,3.35
2023-07-25T21:15:56.570Z,3.42
2023-07-25T21:18:25.247Z,2.75
2023-07-25T21:20:53.776Z,3.92
2023-07-25T21:23:25.326Z,4.32
2023-07-25T21:25:53.755Z,3.55
2023-07-25T21:28:22.897Z,5.88
2023-07-25T21:30:51.289Z,4.40
2023-07-25T21:33:19.941Z,3.45
2023-07-25T21:35:51.094Z,4.80
2023-07-25T21:38:19.779Z,3.85
2023-07-25T21:40:49.477Z,4.63
2023-07-25T21:43:18.097Z,4.50
2023-07-25T21:45:46.536Z,4.10
2023-07-25T21:48:15.152Z,4.97
2023-07-25T21:50:43.521Z,3.47
2023-07-25T21:53:12.170Z,4.10
2023-07-25T21:55:40.375Z,2.92
2023-07-25T21:58:10.590Z,3.85
2023-07-25T22:00:39.121Z,3.92
2023-07-25T22:03:10.257Z,3.42
2023-07-25T22:05:38.729Z,4.75
2023-07-25T22:08:07.393Z,4.70
2023-07-25T22:10:36.054Z,4.15
2023-07-25T22:13:04.836Z,3.85
2023-07-25T22:15:34.831Z,4.82
2023-07-25T22:18:03.627Z,3.47
2023-07-25T22:20:41.940Z,4.18
2023-07-25T22:23:15.113Z,3.92
2023-07-25T22:25:43.585Z,3.80
2023-07-25T22:28:12.416Z,4.82
2023-07-25T22:30:42.222Z,3.85
2023-07-25T22:33:10.885Z,4.57
2023-07-25T22:35:39.336Z,5.15
2023-07-25T22:38:08.033Z,4.75
2023-07-25T22:40:36.473Z,3.85
2023-07-25T22:43:05.110Z,4.13
2023-07-25T22:45:33.531Z,5.05
2023-07-25T22:48:03.652Z,5.90
2023-07-25T22:50:32.095Z,5.65
2023-07-25T22:53:00.907Z,4.50
2023-07-25T22:55:29.481Z,4.85
2023-07-25T22:57:58.185Z,6.13
2023-07-25T23:00:26.562Z,5.63
2023-07-25T23:02:55.411Z,4.70
2023-07-25T23:05:25.211Z,3.83
2023-07-25T23:07:53.726Z,4.75
2023-07-25T23:10:22.096Z,6.57
2023-07-25T23:12:50.843Z,4.05
2023-07-25T23:15:19.217Z,6.13
2023-07-25T23:17:47.884Z,4.13
2023-07-25T23:20:16.280Z,5.13
2023-07-25T23:22:46.242Z,5.18
2023-07-25T23:25:14.680Z,4.20
2023-07-25T23:27:43.328Z,4.47
2023-07-25T23:30:12.764Z,5.20
2023-07-25T23:32:41.611Z,4.22
2023-07-25T23:35:10.793Z,4.13
2023-07-25T23:37:39.345Z,5.43
2023-07-25T23:40:10.479Z,4.53
2023-07-25T23:42:39.018Z,5.68
2023-07-25T23:45:08.376Z,5.53
2023-07-25T23:47:37.186Z,4.00
2023-07-25T23:50:06.781Z,3.78
2023-07-25T23:52:36.308Z,4.63
2023-07-25T23:55:05.394Z,5.35
2023-07-25T23:57:35.280Z,5.20
